Terminal Aerodrome Forecast
Issued by NWS Upton, NY

Home | Current Version | Previous Version | Text Only | Print | Product List | Glossary On
Versions: 1 2 3 4 5 6 7 8 9 10 11 12 13 14 15 16 17 18 19 20 21 22 23 24 25 26 27 28 29 30
000
FTUS41 KOKX 291546 AAB
TAFBDR
TAF AMD
KBDR 291546Z 2916/3012 09014G20KT P6SM OVC060
     FM291900 09010KT P6SM OVC060
     FM292300 09008KT P6SM -RA OVC050
     FM300300 04007KT P6SM -RA SCT025 OVC040
     FM300700 03006KT P6SM BKN060=

USA.gov is the U.S. government's official web portal to all federal, state and local government web resources and services.